createdAt,value
2023-05-23T00:01:47.129Z,89.00
2023-05-23T00:06:53.517Z,87.45
2023-05-23T00:11:56.779Z,87.55
2023-05-23T00:16:59.657Z,87.02
2023-05-23T00:22:01.346Z,85.88
2023-05-23T00:27:03.265Z,86.81
2023-05-23T00:32:05.111Z,86.99
2023-05-23T00:37:07.141Z,85.52
2023-05-23T00:42:09.076Z,84.87
2023-05-23T00:47:13.896Z,85.18
2023-05-23T00:52:16.093Z,85.14
2023-05-23T00:57:18.783Z,84.61
2023-05-23T01:02:21.661Z,85.10
2023-05-23T01:07:23.513Z,83.87
2023-05-23T01:12:56.636Z,84.04
2023-05-23T01:18:08.480Z,82.04
2023-05-23T01:23:19.604Z,82.45
2023-05-23T01:28:23.981Z,83.13
2023-05-23T01:33:27.678Z,83.63
2023-05-23T01:38:29.670Z,83.09
2023-05-23T01:43:31.640Z,81.33
2023-05-23T01:48:35.240Z,80.75
2023-05-23T01:53:37.625Z,80.60
2023-05-23T01:58:39.616Z,80.87
2023-05-23T02:03:42.029Z,81.01
2023-05-23T02:08:43.782Z,80.69
2023-05-23T02:13:45.543Z,81.17
2023-05-23T02:18:47.718Z,79.60
2023-05-23T02:23:52.214Z,79.13
2023-05-23T02:28:54.078Z,79.07
2023-05-23T02:33:55.996Z,79.21
2023-05-23T02:38:58.948Z,81.43
2023-05-23T02:44:00.683Z,79.02
2023-05-23T02:49:02.931Z,78.32
2023-05-23T02:54:04.578Z,78.37
2023-05-23T02:59:09.524Z,77.11
2023-05-23T03:04:14.062Z,77.47
2023-05-23T03:09:21.211Z,76.45
2023-05-23T03:14:23.141Z,76.08
2023-05-23T03:19:24.976Z,74.63
2023-05-23T03:24:26.722Z,75.50
2023-05-23T03:29:28.398Z,73.69
2023-05-23T03:34:30.493Z,74.68
2023-05-23T03:39:32.438Z,75.12
2023-05-23T03:44:34.318Z,74.50
2023-05-23T03:49:38.117Z,75.02
2023-05-23T03:54:40.348Z,75.73
2023-05-23T03:59:42.815Z,74.25
2023-05-23T04:04:47.679Z,73.87
2023-05-23T04:09:50.133Z,73.63
2023-05-23T04:14:53.461Z,72.73
2023-05-23T04:19:55.536Z,72.73
2023-05-23T04:24:57.841Z,72.72
2023-05-23T04:30:01.772Z,70.60
2023-05-23T04:35:04.634Z,69.77
2023-05-23T04:40:08.386Z,69.99
2023-05-23T04:45:21.739Z,70.64
2023-05-23T04:50:34.287Z,71.10
2023-05-23T04:55:36.342Z,72.34
2023-05-23T05:00:38.625Z,72.88
2023-05-23T05:05:40.813Z,72.25
2023-05-23T05:10:43.037Z,76.15
2023-05-23T05:15:46.433Z,75.92
2023-05-23T05:20:49.904Z,77.28
2023-05-23T05:25:51.879Z,78.36
2023-05-23T05:30:55.423Z,77.55
2023-05-23T05:35:57.817Z,78.18
2023-05-23T05:41:00.423Z,78.36
2023-05-23T05:46:06.734Z,77.60
2023-05-23T05:51:09.105Z,78.00
2023-05-23T05:56:10.956Z,78.59
2023-05-23T06:01:17.774Z,76.25
2023-05-23T06:06:20.123Z,74.36
2023-05-23T06:11:22.733Z,73.59
2023-05-23T06:16:24.605Z,70.06
2023-05-23T06:21:26.491Z,69.49
2023-05-23T06:26:28.348Z,68.65
2023-05-23T06:31:30.064Z,68.13
2023-05-23T06:36:32.933Z,66.04
2023-05-23T06:41:34.546Z,63.79
2023-05-23T06:46:38.990Z,63.89
2023-05-23T06:51:42.173Z,63.24
2023-05-23T06:56:44.406Z,65.59
2023-05-23T07:01:46.373Z,64.80
2023-05-23T07:06:51.115Z,63.10
2023-05-23T07:11:52.889Z,63.27
2023-05-23T07:16:55.091Z,64.70
2023-05-23T07:21:56.835Z,64.44
2023-05-23T07:26:58.848Z,64.18
2023-05-23T07:32:01.548Z,62.42
2023-05-23T07:37:04.212Z,63.01
2023-05-23T07:42:13.440Z,63.32
2023-05-23T07:47:15.690Z,62.26
2023-05-23T07:52:18.192Z,63.50
2023-05-23T07:57:20.507Z,62.95
2023-05-23T08:02:25.860Z,62.23
2023-05-23T08:07:28.714Z,58.94
2023-05-23T08:12:34.512Z,57.97
2023-05-23T08:17:43.242Z,59.02
2023-05-23T08:22:46.882Z,57.70
2023-05-23T08:27:49.617Z,57.76
2023-05-23T08:33:11.635Z,59.06
2023-05-23T08:38:16.131Z,58.54
2023-05-23T08:43:29.410Z,57.41
2023-05-23T08:48:35.055Z,58.64
2023-05-23T08:53:41.220Z,59.46
2023-05-23T08:58:44.135Z,57.10
2023-05-23T09:03:51.124Z,57.17
2023-05-23T09:09:02.582Z,54.66
2023-05-23T09:14:05.222Z,55.55
2023-05-23T09:19:12.806Z,54.73
2023-05-23T09:24:16.706Z,56.53
2023-05-23T09:29:21.269Z,55.03
2023-05-23T09:34:22.972Z,56.30
2023-05-23T09:39:24.760Z,53.59
2023-05-23T09:44:26.605Z,53.70
2023-05-23T09:49:28.467Z,55.04
2023-05-23T09:54:30.175Z,52.97
2023-05-23T09:59:35.168Z,52.79
2023-05-23T10:04:38.243Z,54.13
2023-05-23T10:09:42.755Z,54.46
2023-05-23T10:14:49.300Z,54.26
2023-05-23T10:20:01.004Z,54.23
2023-05-23T10:25:06.907Z,53.38
2023-05-23T10:30:09.648Z,52.92
2023-05-23T10:35:33.279Z,52.98
2023-05-23T10:40:49.619Z,52.79
2023-05-23T10:45:52.148Z,50.98
2023-05-23T10:51:07.060Z,50.45
2023-05-23T10:56:10.197Z,50.43
2023-05-23T11:01:19.999Z,49.45
2023-05-23T11:06:43.350Z,48.02
2023-05-23T11:11:52.088Z,50.71
2023-05-23T11:16:53.771Z,48.42
2023-05-23T11:21:58.994Z,46.06
2023-05-23T11:27:01.324Z,46.93
2023-05-23T11:32:15.326Z,46.79
2023-05-23T11:37:25.949Z,46.69
2023-05-23T11:42:28.869Z,47.55
2023-05-23T11:47:30.454Z,48.18
2023-05-23T11:52:33.109Z,46.50
2023-05-23T11:57:38.440Z,45.72
2023-05-23T12:02:41.261Z,45.47
2023-05-23T12:07:49.157Z,45.16
2023-05-23T12:12:51.928Z,46.34
2023-05-23T12:17:57.023Z,44.87
2023-05-23T12:22:58.752Z,44.02
2023-05-23T12:28:00.700Z,41.58
2023-05-23T12:33:09.014Z,44.15
2023-05-23T12:38:15.117Z,43.85
2023-05-23T12:43:16.935Z,44.53
2023-05-23T12:48:20.345Z,43.40
2023-05-23T12:53:23.820Z,43.21
2023-05-23T12:58:29.021Z,42.17
2023-05-23T13:03:32.406Z,41.61
2023-05-23T13:08:34.016Z,42.04
2023-05-23T13:13:35.812Z,42.44
2023-05-23T13:18:37.478Z,41.99
2023-05-23T13:23:39.117Z,40.74
2023-05-23T13:28:40.764Z,41.99
2023-05-23T13:33:42.454Z,41.59
2023-05-23T13:38:44.245Z,42.51
2023-05-23T13:43:45.967Z,42.33
2023-05-23T13:48:48.142Z,42.14
2023-05-23T13:53:50.195Z,39.94
2023-05-23T13:58:52.315Z,40.37
2023-05-23T14:03:54.461Z,41.16
2023-05-23T14:08:56.402Z,39.79
2023-05-23T14:13:58.129Z,39.79
2023-05-23T14:18:59.844Z,38.50
2023-05-23T14:24:01.551Z,39.25
2023-05-23T14:29:04.037Z,41.05
2023-05-23T14:34:05.793Z,40.59
2023-05-23T14:39:10.982Z,40.84
2023-05-23T14:44:13.077Z,39.69
2023-05-23T14:49:15.769Z,40.42
2023-05-23T14:54:18.529Z,40.02
2023-05-23T14:59:20.436Z,40.10
2023-05-23T15:04:22.302Z,41.42
2023-05-23T15:09:24.390Z,41.79
2023-05-23T15:14:29.654Z,40.78
2023-05-23T15:19:31.359Z,39.52
2023-05-23T15:29:39.815Z,40.98
2023-05-23T15:34:41.519Z,40.74
2023-05-23T15:39:43.319Z,42.05
2023-05-23T15:44:45.045Z,41.39
2023-05-23T15:49:49.382Z,41.07
2023-05-23T15:54:50.997Z,41.89
2023-05-23T15:59:52.710Z,40.43
2023-05-23T16:04:54.364Z,40.39
2023-05-23T16:09:56.511Z,41.09
2023-05-23T16:14:58.255Z,42.66
2023-05-23T16:20:00.504Z,40.36
2023-05-23T16:25:02.291Z,40.73
2023-05-23T16:30:04.666Z,41.54
2023-05-23T16:35:09.416Z,42.08
2023-05-23T16:40:11.478Z,41.57
2023-05-23T16:45:13.221Z,41.58
2023-05-23T16:50:15.019Z,41.64
2023-05-23T16:55:16.731Z,41.75
2023-05-23T17:00:21.580Z,41.80
2023-05-23T17:05:23.832Z,42.51
2023-05-23T17:10:26.515Z,41.78
2023-05-23T17:15:28.162Z,42.40
2023-05-23T17:20:29.851Z,42.17
2023-05-23T17:25:31.595Z,42.57
2023-05-23T17:30:33.403Z,43.37
2023-05-23T17:35:35.071Z,43.35
2023-05-23T17:40:36.998Z,43.55
2023-05-23T17:45:39.059Z,43.85
2023-05-23T17:50:41.065Z,43.50
2023-05-23T17:55:43.098Z,44.82
2023-05-23T18:00:46.887Z,43.67
2023-05-23T18:05:50.013Z,44.72
2023-05-23T18:10:51.956Z,46.22
2023-05-23T18:15:53.727Z,46.53
2023-05-23T18:20:55.610Z,46.84
2023-05-23T18:25:57.872Z,47.25
2023-05-23T18:30:59.611Z,48.25
2023-05-23T18:36:01.561Z,49.40
2023-05-23T18:41:03.312Z,49.19
2023-05-23T18:46:05.006Z,48.72
2023-05-23T18:51:07.033Z,49.24
2023-05-23T18:56:08.815Z,49.70
2023-05-23T19:01:10.457Z,49.88
2023-05-23T19:06:12.620Z,51.08
2023-05-23T19:11:14.773Z,50.59
2023-05-23T19:16:19.804Z,51.28
2023-05-23T19:21:22.008Z,52.23
2023-05-23T19:26:24.079Z,52.29
2023-05-23T19:31:25.879Z,52.67
2023-05-23T19:36:27.616Z,52.95
2023-05-23T19:41:29.287Z,53.48
2023-05-23T19:46:31.053Z,53.22
2023-05-23T19:51:32.840Z,54.07
2023-05-23T19:56:35.973Z,53.95
2023-05-23T20:01:37.693Z,54.69
2023-05-23T20:06:39.688Z,54.71
2023-05-23T20:11:45.630Z,55.03
2023-05-23T20:16:50.234Z,55.89
2023-05-23T20:21:52.033Z,55.31
2023-05-23T20:26:53.778Z,55.74
2023-05-23T20:31:56.171Z,56.31
2023-05-23T20:36:57.883Z,56.79
2023-05-23T20:41:59.788Z,57.06
2023-05-23T20:47:01.568Z,57.46
2023-05-23T20:52:03.754Z,56.65
2023-05-23T20:57:05.699Z,57.86
2023-05-23T21:02:08.202Z,58.11
2023-05-23T21:07:09.996Z,57.61
2023-05-23T21:12:11.634Z,58.06
2023-05-23T21:17:13.589Z,58.47
2023-05-23T21:22:15.632Z,58.05
2023-05-23T21:27:19.392Z,58.39
2023-05-23T21:32:21.494Z,58.77
2023-05-23T21:37:23.414Z,58.84
2023-05-23T21:42:25.628Z,59.33
2023-05-23T21:47:27.281Z,59.66
2023-05-23T21:52:28.993Z,60.25
2023-05-23T21:57:30.906Z,60.37
2023-05-23T22:02:33.207Z,60.72
2023-05-23T22:07:35.006Z,60.99
2023-05-23T22:12:36.799Z,62.27
2023-05-23T22:17:43.287Z,62.25
2023-05-23T22:22:45.159Z,62.81
2023-05-23T22:27:48.977Z,63.12
2023-05-23T22:32:50.674Z,63.66
2023-05-23T22:37:52.437Z,63.69
2023-05-23T22:42:54.050Z,64.41
2023-05-23T22:47:56.142Z,64.62
2023-05-23T22:52:58.590Z,64.12
2023-05-23T22:58:03.623Z,64.57
2023-05-23T23:03:05.582Z,64.40
2023-05-23T23:08:07.726Z,64.84
2023-05-23T23:13:09.457Z,65.29
2023-05-23T23:18:13.433Z,65.02
2023-05-23T23:23:15.198Z,65.65
2023-05-23T23:28:19.856Z,66.31
2023-05-23T23:33:21.540Z,66.42
2023-05-23T23:38:23.182Z,66.57
2023-05-23T23:43:24.796Z,66.84
2023-05-23T23:48:26.401Z,68.07
2023-05-23T23:53:28.010Z,67.90
2023-05-23T23:58:29.660Z,68.29
